Pays
Station

 

Conditions  météo  pour  Ramona, Ramona Airport  -  Etats-Unis    Etats-Unis

  
26 °C
    
 
 

METAR pour Ramona, Ramona Airport :

KRNM 212253Z 28011KT 10SM CLR 26/04 A2989 RMK AO2 SLP112 T02610039 $

 

Voici le bulletin pour Ramona, Ramona Airport - Etats-Unis.
 
Le bulletin a été fait il y a 9 minutes, à 22:53 UTC .
Le vent soufflait à la vitesse de 5.7 mètres par seconde de Ouest (280°).
 
La température était de 26 °C, avec un point de rosée à 4 °C.
La température ressentie était de 26 °C.
 
La pression atmosphérique était de 1012 hPa.
L'humidité relative était de 24.2%.
 
Le ciel était clair.
 
La visibilité globale était de 16.1 kilomètres.
 

 
 
 

Pays :   A   B   C   D   E   F   G   H   I   J   K   L   M   N   O   P   Q   R   S   T   U   V   W   Y   Z

 

Partenaires :  Info Météo avec Met'info
Météo Marine avec MeteoMarine.net
Infos Site  |  Infos Légales  |  Crédits  |  Confidentialité
Contactez-nous  |  Ajouter aux favoris
© 2013-2018 METAR - Tous droits réservés